Allentown, Arizona
Current Conditions -  °F | °C
As of 8:53 PM on Wednesday 22 Oct 2014 (Local Time) from KGUP Reporting Station
Clear Clear  
Wind Chill: 51°   Ceiling: Unl
Heat Index: 51°   Visibility: 10mi
Dew Point: 38°   Wind: 0mph
Humidity: 61%   Direction: NA
Pressure: 30.24"   Gusts: NA
Location:  35.2918°N, 109.157°W
Report Text: KGUP 230253Z AUTO 00000KT 10SM CLR 11/03 A3024 RMK AO2 SLP175 T01060033 51014
Loading
Personal Weather Stations






























Interactive Weather Map New forecast layout! Learn more

10-Day Weather Forecast

Advertisements
Track Severe Weather on mobile